Hovedside
METAR-TAF:

METAR-TAF

Lufthavner :

Volgograd, Russland

breddegrad: 48-47N, lengdegrad: 044-22E, høyde over havet: 145 m

Gjeldene værobservasjon

Denne rapporten ble laget for 38 minutter siden, klokken 15:00 UTC
Vind 12 kt fra Vest-nordvest
Temperatur 23°C
Luftfuktighet 44%
Trykk 1016 hPa
Sikt 10 km eller mer
ingen skyer under 1500 m og ingen bygeskyer

METAR: URWW 201500Z 29006MPS CAVOK 23/10 Q1016 R24/010070 NOSIG

Tid: 18:38 (15:38 UTC)

Varsel

Denne rapporten ble laget for 1 time og 42 minutter siden, klokken 13:56 UTC
Varsel gyldig fra 20. klokken 15 UTC til 20. klokken 24 UTC
Vind 10 kt fra Vest-nordvest med vindkast opp mot 21 kt
Sikt 10 km eller mer
ingen skyer under 1500 m og ingen bygeskyer
Midlertidig
fra 20. klokken 15 UTC til 20. klokken 24 UTC
Vind 6 kt fra Vest med vindkast opp mot 16 kt

TAF: URWW 201356Z 2015/2024 29005G11MPS CAVOK TEMPO 2015/2024 26003G08MPS

Værobservasjoner og værvarsel for over 4000 flyplasser (METAR- og TAF-rapporter).

Tilgjengelige stasjoner er representert av de røde og gule prikkene på kartet.

Hold musepekeren over prikken for å se navnet på stasjonen.

Klikk så for å se værobservasjoner og -varsler.

For å forandre kartet kan du klikke på den grønne knappen med svart kryss for å zoome inn, på den grønne knappen med strek for å zoome ut, eller på de grønne pilene for å se tilstøtende kart.


METAR-TAF: